KMOD/MOD METAR and TAF weather

Enter ICAO airport designator
Station Type Date Time Source
KMOD METAR 2022/11/30 10:53 UTC NOAA

KMOD 301053Z AUTO 11003KT 7SM CLR 01/00 A3003 RMK AO2 SLP168 T00060000


Station Type Date Time Source
KMOD Decoded METAR 2022/11/30 10:53 UTC NOAA

MODESTO CITY CO SHAM FLD, CA, United States (KMOD) 37-37N 120-57W 29M
Nov 30, 2022 - 05:53 AM EST / 2022.11.30 1053 UTC
Wind: from the ESE (110 degrees) at 3 MPH (3 KT):0
Visibility: 7 mile(s):0
Sky conditions: clear
Temperature: 33.1 F (0.6 C)
Dew Point: 32.0 F (0.0 C)
Relative Humidity: 95%
Pressure (altimeter): 30.03 in. Hg (1016 hPa)
ob: KMOD 301053Z AUTO 11003KT 7SM CLR 01/00 A3003 RMK AO2 SLP168 T00060000
cycle: 11

Station Type Date Time Source
KMOD TAF 2022/11/30 06:30 UTC NOAA

TAF KMOD 300525Z 3006/0106 VRB04KT P6SM SKC
FM301200 VRB04KT 6SM BR SKC
TEMPO 3014/3016 5SM BR
FM301800 14004KT P6SM SCT250
FM010000 22006KT P6SM BKN250

Example: see airport list